sensor_id;sensor_type;location;lat;lon;timestamp;temperature;humidity
13694;DHT22;6919;52.344;14.518;2023-11-21T00:00:09;8.70;99.90
13694;DHT22;6919;52.344;14.518;2023-11-21T00:02:39;8.70;99.90
13694;DHT22;6919;52.344;14.518;2023-11-21T00:05:08;8.50;99.90
13694;DHT22;6919;52.344;14.518;2023-11-21T00:07:39;8.50;99.90
13694;DHT22;6919;52.344;14.518;2023-11-21T00:10:09;8.50;99.90
13694;DHT22;6919;52.344;14.518;2023-11-21T00:12:38;8.40;99.90
13694;DHT22;6919;52.344;14.518;2023-11-21T00:15:09;8.40;99.90
13694;DHT22;6919;52.344;14.518;2023-11-21T00:17:39;8.30;99.90
13694;DHT22;6919;52.344;14.518;2023-11-21T00:20:08;8.20;99.90
13694;DHT22;6919;52.344;14.518;2023-11-21T00:22:41;8.10;99.90
13694;DHT22;6919;52.344;14.518;2023-11-21T00:25:10;8.10;99.90
13694;DHT22;6919;52.344;14.518;2023-11-21T00:27:42;8.10;99.90
13694;DHT22;6919;52.344;14.518;2023-11-21T00:30:12;8.00;99.90
13694;DHT22;6919;52.344;14.518;2023-11-21T00:32:41;7.90;99.90
13694;DHT22;6919;52.344;14.518;2023-11-21T00:35:10;7.80;99.90
13694;DHT22;6919;52.344;14.518;2023-11-21T00:37:38;7.80;99.90
13694;DHT22;6919;52.344;14.518;2023-11-21T00:40:10;7.70;99.90
13694;DHT22;6919;52.344;14.518;2023-11-21T00:42:42;7.60;99.90
13694;DHT22;6919;52.344;14.518;2023-11-21T00:45:11;7.70;99.90
13694;DHT22;6919;52.344;14.518;2023-11-21T00:47:39;7.60;99.90
13694;DHT22;6919;52.344;14.518;2023-11-21T00:50:08;7.70;99.90
13694;DHT22;6919;52.344;14.518;2023-11-21T00:52:37;7.60;99.90
13694;DHT22;6919;52.344;14.518;2023-11-21T00:55:08;7.50;99.90
13694;DHT22;6919;52.344;14.518;2023-11-21T00:57:37;7.50;99.90
13694;DHT22;6919;52.344;14.518;2023-11-21T01:00:06;7.40;99.90
13694;DHT22;6919;52.344;14.518;2023-11-21T01:02:40;7.40;99.90
13694;DHT22;6919;52.344;14.518;2023-11-21T01:05:10;7.40;99.90
13694;DHT22;6919;52.344;14.518;2023-11-21T01:07:38;7.40;99.90
13694;DHT22;6919;52.344;14.518;2023-11-21T01:10:09;7.40;99.90
13694;DHT22;6919;52.344;14.518;2023-11-21T01:12:38;7.30;99.90
13694;DHT22;6919;52.344;14.518;2023-11-21T01:15:07;7.40;99.90
13694;DHT22;6919;52.344;14.518;2023-11-21T01:17:36;7.40;99.90
13694;DHT22;6919;52.344;14.518;2023-11-21T01:20:06;7.40;99.90
13694;DHT22;6919;52.344;14.518;2023-11-21T01:22:39;7.30;99.90
13694;DHT22;6919;52.344;14.518;2023-11-21T01:25:12;7.30;99.90
13694;DHT22;6919;52.344;14.518;2023-11-21T01:27:41;7.30;99.90
13694;DHT22;6919;52.344;14.518;2023-11-21T01:30:10;7.00;99.90
13694;DHT22;6919;52.344;14.518;2023-11-21T01:32:39;7.00;99.90
13694;DHT22;6919;52.344;14.518;2023-11-21T01:35:11;6.80;99.90
13694;DHT22;6919;52.344;14.518;2023-11-21T01:37:40;6.70;99.90
13694;DHT22;6919;52.344;14.518;2023-11-21T01:40:11;6.50;99.90
13694;DHT22;6919;52.344;14.518;2023-11-21T01:42:42;6.50;99.90
13694;DHT22;6919;52.344;14.518;2023-11-21T01:45:11;6.50;99.90
13694;DHT22;6919;52.344;14.518;2023-11-21T01:47:41;6.70;99.90
13694;DHT22;6919;52.344;14.518;2023-11-21T01:50:15;6.40;99.90
13694;DHT22;6919;52.344;14.518;2023-11-21T01:52:46;6.50;99.90
13694;DHT22;6919;52.344;14.518;2023-11-21T01:55:18;6.40;99.90
13694;DHT22;6919;52.344;14.518;2023-11-21T01:57:50;6.40;99.90
13694;DHT22;6919;52.344;14.518;2023-11-21T02:00:18;6.40;99.90
13694;DHT22;6919;52.344;14.518;2023-11-21T02:02:47;6.30;99.90
13694;DHT22;6919;52.344;14.518;2023-11-21T02:05:18;6.30;99.90
13694;DHT22;6919;52.344;14.518;2023-11-21T02:07:48;6.30;99.90
13694;DHT22;6919;52.344;14.518;2023-11-21T02:10:20;6.30;99.90
13694;DHT22;6919;52.344;14.518;2023-11-21T02:12:51;6.30;99.90
13694;DHT22;6919;52.344;14.518;2023-11-21T02:15:19;6.30;99.90
13694;DHT22;6919;52.344;14.518;2023-11-21T02:17:49;6.10;99.90
13694;DHT22;6919;52.344;14.518;2023-11-21T02:20:20;6.20;99.90
13694;DHT22;6919;52.344;14.518;2023-11-21T02:22:53;6.10;99.90
13694;DHT22;6919;52.344;14.518;2023-11-21T02:25:26;6.20;99.90
13694;DHT22;6919;52.344;14.518;2023-11-21T02:27:56;6.20;99.90
13694;DHT22;6919;52.344;14.518;2023-11-21T02:30:25;6.10;99.90
13694;DHT22;6919;52.344;14.518;2023-11-21T02:32:55;6.10;99.90
13694;DHT22;6919;52.344;14.518;2023-11-21T02:35:25;6.80;99.90
13694;DHT22;6919;52.344;14.518;2023-11-21T02:37:55;5.90;99.90
13694;DHT22;6919;52.344;14.518;2023-11-21T02:40:23;5.80;99.90
13694;DHT22;6919;52.344;14.518;2023-11-21T02:42:54;5.70;99.90
13694;DHT22;6919;52.344;14.518;2023-11-21T02:45:24;5.80;99.90
13694;DHT22;6919;52.344;14.518;2023-11-21T02:47:53;6.30;99.90
13694;DHT22;6919;52.344;14.518;2023-11-21T02:50:25;5.70;99.90
13694;DHT22;6919;52.344;14.518;2023-11-21T02:52:56;5.70;99.90
13694;DHT22;6919;52.344;14.518;2023-11-21T02:55:27;5.70;99.90
13694;DHT22;6919;52.344;14.518;2023-11-21T02:57:56;5.80;99.90
13694;DHT22;6919;52.344;14.518;2023-11-21T03:00:24;5.80;99.90
13694;DHT22;6919;52.344;14.518;2023-11-21T03:02:53;5.80;99.90
13694;DHT22;6919;52.344;14.518;2023-11-21T03:05:23;5.60;99.90
13694;DHT22;6919;52.344;14.518;2023-11-21T03:07:51;5.70;99.90
13694;DHT22;6919;52.344;14.518;2023-11-21T03:10:21;5.60;99.90
13694;DHT22;6919;52.344;14.518;2023-11-21T03:12:51;5.50;99.90
13694;DHT22;6919;52.344;14.518;2023-11-21T03:15:19;6.10;99.90
13694;DHT22;6919;52.344;14.518;2023-11-21T03:17:48;5.50;99.90
13694;DHT22;6919;52.344;14.518;2023-11-21T03:20:17;5.50;99.90
13694;DHT22;6919;52.344;14.518;2023-11-21T03:22:46;5.50;99.90
13694;DHT22;6919;52.344;14.518;2023-11-21T03:25:15;5.50;99.90
13694;DHT22;6919;52.344;14.518;2023-11-21T03:27:45;5.40;99.90
13694;DHT22;6919;52.344;14.518;2023-11-21T03:30:14;5.50;99.90
13694;DHT22;6919;52.344;14.518;2023-11-21T03:32:43;5.50;99.90
13694;DHT22;6919;52.344;14.518;2023-11-21T03:35:11;5.50;99.90
13694;DHT22;6919;52.344;14.518;2023-11-21T03:37:40;5.40;99.90
13694;DHT22;6919;52.344;14.518;2023-11-21T03:40:10;5.40;99.90
13694;DHT22;6919;52.344;14.518;2023-11-21T03:42:39;5.40;99.90
13694;DHT22;6919;52.344;14.518;2023-11-21T03:45:10;5.40;99.90
13694;DHT22;6919;52.344;14.518;2023-11-21T03:47:40;5.30;99.90
13694;DHT22;6919;52.344;14.518;2023-11-21T03:50:09;5.40;99.90
13694;DHT22;6919;52.344;14.518;2023-11-21T03:52:37;5.30;99.90
13694;DHT22;6919;52.344;14.518;2023-11-21T03:55:06;5.20;99.90
13694;DHT22;6919;52.344;14.518;2023-11-21T03:57:35;5.30;99.90
13694;DHT22;6919;52.344;14.518;2023-11-21T04:00:05;5.20;99.90
13694;DHT22;6919;52.344;14.518;2023-11-21T04:02:38;5.20;99.90
13694;DHT22;6919;52.344;14.518;2023-11-21T04:05:07;5.20;99.90
13694;DHT22;6919;52.344;14.518;2023-11-21T04:07:36;5.20;99.90
13694;DHT22;6919;52.344;14.518;2023-11-21T04:10:07;5.20;99.90
13694;DHT22;6919;52.344;14.518;2023-11-21T04:12:40;5.10;99.90
13694;DHT22;6919;52.344;14.518;2023-11-21T04:15:09;5.20;99.90
13694;DHT22;6919;52.344;14.518;2023-11-21T04:17:41;5.10;99.90
13694;DHT22;6919;52.344;14.518;2023-11-21T04:20:10;5.10;99.90
13694;DHT22;6919;52.344;14.518;2023-11-21T04:22:39;5.10;99.90
13694;DHT22;6919;52.344;14.518;2023-11-21T04:25:11;5.10;99.90
13694;DHT22;6919;52.344;14.518;2023-11-21T04:27:43;5.00;99.90
13694;DHT22;6919;52.344;14.518;2023-11-21T04:30:12;5.00;99.90
13694;DHT22;6919;52.344;14.518;2023-11-21T04:32:43;5.10;99.90
13694;DHT22;6919;52.344;14.518;2023-11-21T04:35:11;5.20;99.90
13694;DHT22;6919;52.344;14.518;2023-11-21T04:37:39;5.10;99.90
13694;DHT22;6919;52.344;14.518;2023-11-21T04:40:09;5.00;99.90
13694;DHT22;6919;52.344;14.518;2023-11-21T04:42:38;5.00;99.90
13694;DHT22;6919;52.344;14.518;2023-11-21T04:45:08;4.90;99.90
13694;DHT22;6919;52.344;14.518;2023-11-21T04:47:39;4.90;99.90
13694;DHT22;6919;52.344;14.518;2023-11-21T04:50:09;4.90;99.90
13694;DHT22;6919;52.344;14.518;2023-11-21T04:52:37;4.90;99.90
13694;DHT22;6919;52.344;14.518;2023-11-21T04:55:06;4.80;99.90
13694;DHT22;6919;52.344;14.518;2023-11-21T04:57:37;4.80;99.90
13694;DHT22;6919;52.344;14.518;2023-11-21T05:00:06;4.80;99.90
13694;DHT22;6919;52.344;14.518;2023-11-21T05:02:35;4.80;99.90
13694;DHT22;6919;52.344;14.518;2023-11-21T05:05:06;4.80;99.90
13694;DHT22;6919;52.344;14.518;2023-11-21T05:07:37;4.80;99.90
13694;DHT22;6919;52.344;14.518;2023-11-21T05:10:08;4.80;99.90
13694;DHT22;6919;52.344;14.518;2023-11-21T05:12:40;4.80;99.90
13694;DHT22;6919;52.344;14.518;2023-11-21T05:15:10;4.80;99.90
13694;DHT22;6919;52.344;14.518;2023-11-21T05:17:42;4.90;99.90
13694;DHT22;6919;52.344;14.518;2023-11-21T05:20:14;4.80;99.90
13694;DHT22;6919;52.344;14.518;2023-11-21T05:22:47;4.80;99.90
13694;DHT22;6919;52.344;14.518;2023-11-21T05:25:16;4.70;99.90
13694;DHT22;6919;52.344;14.518;2023-11-21T05:27:45;4.70;99.90
13694;DHT22;6919;52.344;14.518;2023-11-21T05:30:14;4.70;99.90
13694;DHT22;6919;52.344;14.518;2023-11-21T05:32:42;4.60;99.90
13694;DHT22;6919;52.344;14.518;2023-11-21T05:35:11;4.70;99.90
13694;DHT22;6919;52.344;14.518;2023-11-21T05:37:44;4.70;99.90
13694;DHT22;6919;52.344;14.518;2023-11-21T05:40:13;4.70;99.90
13694;DHT22;6919;52.344;14.518;2023-11-21T05:42:41;4.80;99.90
13694;DHT22;6919;52.344;14.518;2023-11-21T05:45:10;4.80;99.90
13694;DHT22;6919;52.344;14.518;2023-11-21T05:47:41;4.70;99.90
13694;DHT22;6919;52.344;14.518;2023-11-21T05:50:11;4.60;99.90
13694;DHT22;6919;52.344;14.518;2023-11-21T05:52:45;4.70;99.90
13694;DHT22;6919;52.344;14.518;2023-11-21T05:55:15;4.60;99.90
13694;DHT22;6919;52.344;14.518;2023-11-21T05:57:44;4.60;99.90
13694;DHT22;6919;52.344;14.518;2023-11-21T06:00:14;4.60;99.90
13694;DHT22;6919;52.344;14.518;2023-11-21T06:02:47;4.60;99.90
13694;DHT22;6919;52.344;14.518;2023-11-21T06:05:18;4.50;99.90
13694;DHT22;6919;52.344;14.518;2023-11-21T06:07:49;4.70;99.90
13694;DHT22;6919;52.344;14.518;2023-11-21T06:10:19;4.60;99.90
13694;DHT22;6919;52.344;14.518;2023-11-21T06:12:48;4.50;99.90
13694;DHT22;6919;52.344;14.518;2023-11-21T06:15:16;4.60;99.90
13694;DHT22;6919;52.344;14.518;2023-11-21T06:17:46;4.50;99.90
13694;DHT22;6919;52.344;14.518;2023-11-21T06:20:20;4.50;99.90
13694;DHT22;6919;52.344;14.518;2023-11-21T06:22:51;4.50;99.90
13694;DHT22;6919;52.344;14.518;2023-11-21T06:25:20;4.50;99.90
13694;DHT22;6919;52.344;14.518;2023-11-21T06:27:49;4.50;99.90
13694;DHT22;6919;52.344;14.518;2023-11-21T06:30:18;4.40;99.90
13694;DHT22;6919;52.344;14.518;2023-11-21T06:32:47;4.40;99.90
13694;DHT22;6919;52.344;14.518;2023-11-21T06:35:17;4.40;99.90
13694;DHT22;6919;52.344;14.518;2023-11-21T06:37:46;4.40;99.90
13694;DHT22;6919;52.344;14.518;2023-11-21T06:40:18;4.40;99.90
13694;DHT22;6919;52.344;14.518;2023-11-21T06:42:48;4.40;99.90
13694;DHT22;6919;52.344;14.518;2023-11-21T06:45:16;4.40;99.90
13694;DHT22;6919;52.344;14.518;2023-11-21T06:47:45;4.50;99.90
13694;DHT22;6919;52.344;14.518;2023-11-21T06:50:14;4.50;99.90
13694;DHT22;6919;52.344;14.518;2023-11-21T06:52:42;4.50;99.90
13694;DHT22;6919;52.344;14.518;2023-11-21T06:55:11;4.40;99.90
13694;DHT22;6919;52.344;14.518;2023-11-21T06:57:41;4.40;99.90
13694;DHT22;6919;52.344;14.518;2023-11-21T07:00:10;4.40;99.90
13694;DHT22;6919;52.344;14.518;2023-11-21T07:02:39;4.40;99.90
13694;DHT22;6919;52.344;14.518;2023-11-21T07:05:08;4.30;99.90
13694;DHT22;6919;52.344;14.518;2023-11-21T07:07:36;4.30;99.90
13694;DHT22;6919;52.344;14.518;2023-11-21T07:10:06;4.40;99.90
13694;DHT22;6919;52.344;14.518;2023-11-21T07:12:36;4.30;99.90
13694;DHT22;6919;52.344;14.518;2023-11-21T07:15:07;4.40;99.90
13694;DHT22;6919;52.344;14.518;2023-11-21T07:17:36;4.90;99.90
13694;DHT22;6919;52.344;14.518;2023-11-21T07:20:08;4.50;99.90
13694;DHT22;6919;52.344;14.518;2023-11-21T07:22:38;4.50;99.90
13694;DHT22;6919;52.344;14.518;2023-11-21T07:25:07;4.50;99.90
13694;DHT22;6919;52.344;14.518;2023-11-21T07:27:37;4.50;99.90
13694;DHT22;6919;52.344;14.518;2023-11-21T07:30:07;4.40;99.90
13694;DHT22;6919;52.344;14.518;2023-11-21T07:32:37;4.50;99.90
13694;DHT22;6919;52.344;14.518;2023-11-21T07:35:08;4.50;99.90
13694;DHT22;6919;52.344;14.518;2023-11-21T07:37:37;4.60;99.90
13694;DHT22;6919;52.344;14.518;2023-11-21T07:40:06;4.50;99.90
13694;DHT22;6919;52.344;14.518;2023-11-21T07:42:36;4.40;99.90
13694;DHT22;6919;52.344;14.518;2023-11-21T07:45:07;4.40;99.90
13694;DHT22;6919;52.344;14.518;2023-11-21T07:47:36;4.50;99.90
13694;DHT22;6919;52.344;14.518;2023-11-21T07:50:07;4.60;99.90
13694;DHT22;6919;52.344;14.518;2023-11-21T07:52:36;4.50;99.90
13694;DHT22;6919;52.344;14.518;2023-11-21T07:55:05;4.40;99.90
13694;DHT22;6919;52.344;14.518;2023-11-21T07:57:34;4.50;99.90
13694;DHT22;6919;52.344;14.518;2023-11-21T08:00:03;4.50;99.90
13694;DHT22;6919;52.344;14.518;2023-11-21T08:02:36;4.50;99.90
13694;DHT22;6919;52.344;14.518;2023-11-21T08:05:04;4.60;99.90
13694;DHT22;6919;52.344;14.518;2023-11-21T08:07:37;4.40;99.90
13694;DHT22;6919;52.344;14.518;2023-11-21T08:10:06;4.50;99.90
13694;DHT22;6919;52.344;14.518;2023-11-21T08:12:37;4.50;99.90
13694;DHT22;6919;52.344;14.518;2023-11-21T08:15:08;4.50;99.90
13694;DHT22;6919;52.344;14.518;2023-11-21T08:17:37;4.50;99.90
13694;DHT22;6919;52.344;14.518;2023-11-21T08:20:06;4.50;99.90
13694;DHT22;6919;52.344;14.518;2023-11-21T08:22:37;4.60;99.90
13694;DHT22;6919;52.344;14.518;2023-11-21T08:25:08;4.60;99.90
13694;DHT22;6919;52.344;14.518;2023-11-21T08:27:36;4.60;99.90
13694;DHT22;6919;52.344;14.518;2023-11-21T08:30:07;4.60;99.90
13694;DHT22;6919;52.344;14.518;2023-11-21T08:32:36;4.60;99.90
13694;DHT22;6919;52.344;14.518;2023-11-21T08:35:04;4.60;99.90
13694;DHT22;6919;52.344;14.518;2023-11-21T08:37:33;4.60;99.90
13694;DHT22;6919;52.344;14.518;2023-11-21T08:40:05;4.50;99.90
13694;DHT22;6919;52.344;14.518;2023-11-21T08:42:36;4.50;99.90
13694;DHT22;6919;52.344;14.518;2023-11-21T08:45:05;4.60;99.90
13694;DHT22;6919;52.344;14.518;2023-11-21T08:47:36;4.70;99.90
13694;DHT22;6919;52.344;14.518;2023-11-21T08:50:05;4.60;99.90
13694;DHT22;6919;52.344;14.518;2023-11-21T08:52:34;4.50;99.90
13694;DHT22;6919;52.344;14.518;2023-11-21T08:55:04;4.50;99.90
13694;DHT22;6919;52.344;14.518;2023-11-21T08:57:34;4.50;99.90
13694;DHT22;6919;52.344;14.518;2023-11-21T09:00:04;4.40;99.90
13694;DHT22;6919;52.344;14.518;2023-11-21T09:02:39;4.40;99.90
13694;DHT22;6919;52.344;14.518;2023-11-21T09:05:09;4.40;99.90
13694;DHT22;6919;52.344;14.518;2023-11-21T09:07:39;4.40;99.90
13694;DHT22;6919;52.344;14.518;2023-11-21T09:10:09;4.50;99.90
13694;DHT22;6919;52.344;14.518;2023-11-21T09:12:38;4.50;99.90
13694;DHT22;6919;52.344;14.518;2023-11-21T09:15:07;4.50;99.90
13694;DHT22;6919;52.344;14.518;2023-11-21T09:17:39;4.60;99.90
13694;DHT22;6919;52.344;14.518;2023-11-21T09:20:08;4.50;99.90
